createdAt,value
2022-08-25T00:03:02.745Z,24.00
2022-08-25T00:05:33.586Z,24.00
2022-08-25T00:08:06.929Z,24.00
2022-08-25T00:10:37.038Z,23.90
2022-08-25T00:13:10.987Z,23.90
2022-08-25T00:15:47.764Z,23.90
2022-08-25T00:18:20.203Z,23.80
2022-08-25T00:20:50.766Z,23.80
2022-08-25T00:23:21.777Z,23.70
2022-08-25T00:25:51.610Z,23.70
2022-08-25T00:28:21.412Z,23.70
2022-08-25T00:30:52.415Z,23.70
2022-08-25T00:33:21.575Z,23.70
2022-08-25T00:36:08.311Z,23.60
2022-08-25T00:38:38.842Z,23.60
2022-08-25T00:41:10.236Z,23.60
2022-08-25T00:44:05.490Z,23.60
2022-08-25T00:46:42.765Z,23.60
2022-08-25T00:49:39.265Z,23.50
2022-08-25T00:52:25.592Z,23.60
2022-08-25T00:55:11.049Z,23.60
2022-08-25T00:57:46.286Z,23.60
2022-08-25T01:00:26.048Z,23.50
2022-08-25T01:03:01.508Z,23.50
2022-08-25T01:05:40.662Z,23.50
2022-08-25T01:08:16.275Z,23.40
2022-08-25T01:10:44.963Z,23.40
2022-08-25T01:13:22.541Z,23.40
2022-08-25T01:15:55.582Z,23.40
2022-08-25T01:18:25.355Z,23.30
2022-08-25T01:20:57.596Z,23.30
2022-08-25T01:23:32.819Z,23.30
2022-08-25T01:26:19.546Z,23.30
2022-08-25T01:29:12.427Z,23.20
2022-08-25T01:31:54.583Z,23.10
2022-08-25T01:34:23.028Z,23.10
2022-08-25T01:36:51.701Z,23.10
2022-08-25T01:39:18.990Z,23.00
2022-08-25T01:42:19.964Z,23.00
2022-08-25T01:44:55.778Z,23.00
2022-08-25T01:47:28.521Z,23.00
2022-08-25T01:50:04.468Z,23.00
2022-08-25T01:52:37.601Z,22.90
2022-08-25T01:55:08.065Z,22.90
2022-08-25T01:57:36.819Z,22.90
2022-08-25T02:00:11.181Z,22.90
2022-08-25T02:02:42.485Z,22.90
2022-08-25T02:05:22.799Z,22.80
2022-08-25T02:07:52.283Z,22.80
2022-08-25T02:10:19.993Z,22.80
2022-08-25T02:12:48.077Z,22.80
2022-08-25T02:15:17.236Z,22.70
2022-08-25T02:17:52.630Z,22.70
2022-08-25T02:20:21.009Z,22.70
2022-08-25T02:22:56.793Z,22.60
2022-08-25T02:25:31.144Z,22.50
2022-08-25T02:27:58.817Z,22.50
2022-08-25T02:30:26.091Z,22.50
2022-08-25T02:32:53.642Z,22.40
2022-08-25T02:35:22.722Z,22.30
2022-08-25T02:37:51.877Z,22.30
2022-08-25T02:40:24.159Z,22.20
2022-08-25T02:42:59.625Z,22.10
2022-08-25T02:45:26.800Z,22.10
2022-08-25T02:47:57.978Z,22.10
2022-08-25T02:50:26.995Z,22.10
2022-08-25T02:52:55.489Z,22.00
2022-08-25T02:55:26.556Z,22.00
2022-08-25T02:57:55.290Z,21.90
2022-08-25T03:00:27.543Z,21.80
2022-08-25T03:03:01.427Z,21.80
2022-08-25T03:05:34.902Z,21.70
2022-08-25T03:08:02.450Z,21.60
2022-08-25T03:10:33.202Z,21.60
2022-08-25T03:13:07.415Z,21.50
2022-08-25T03:15:37.986Z,21.40
2022-08-25T03:18:08.707Z,21.30
2022-08-25T03:20:38.565Z,21.20
2022-08-25T03:23:08.142Z,21.10
2022-08-25T03:25:53.817Z,21.10
2022-08-25T03:28:25.053Z,21.00
2022-08-25T03:30:57.604Z,20.90
2022-08-25T03:33:26.898Z,20.90
2022-08-25T03:35:55.928Z,20.80
2022-08-25T03:38:26.667Z,20.80
2022-08-25T03:40:59.416Z,20.70
2022-08-25T03:43:30.481Z,20.70
2022-08-25T03:46:00.458Z,20.70
2022-08-25T03:48:30.102Z,20.60
2022-08-25T03:50:58.251Z,20.60
2022-08-25T03:53:28.827Z,20.60
2022-08-25T03:55:58.932Z,20.60
2022-08-25T03:58:29.020Z,20.60
2022-08-25T04:01:01.514Z,20.50
2022-08-25T04:03:32.024Z,20.40
2022-08-25T04:06:04.028Z,20.50
2022-08-25T04:08:31.371Z,20.50
2022-08-25T04:11:00.143Z,20.50
2022-08-25T04:13:29.810Z,20.60
2022-08-25T04:16:01.221Z,20.70
2022-08-25T04:18:31.421Z,20.90
2022-08-25T04:21:10.005Z,21.10
2022-08-25T04:23:43.670Z,21.30
2022-08-25T04:26:17.169Z,21.30
2022-08-25T04:28:47.606Z,21.30
2022-08-25T04:31:19.464Z,21.20
2022-08-25T04:33:49.616Z,21.30
2022-08-25T04:36:19.370Z,21.40
2022-08-25T04:38:50.779Z,21.40
2022-08-25T04:41:40.991Z,21.40
2022-08-25T04:44:10.022Z,21.40
2022-08-25T04:46:38.537Z,21.50
2022-08-25T04:49:10.302Z,21.60
2022-08-25T04:51:43.252Z,21.60
2022-08-25T04:54:17.172Z,21.60
2022-08-25T04:56:45.386Z,21.50
2022-08-25T04:59:17.441Z,21.40
2022-08-25T05:01:52.435Z,21.30
2022-08-25T05:04:29.079Z,21.20
2022-08-25T05:06:57.816Z,21.20
2022-08-25T05:09:28.603Z,21.20
2022-08-25T05:12:03.832Z,21.10
2022-08-25T05:14:32.699Z,21.10
2022-08-25T05:17:02.449Z,21.20
2022-08-25T05:19:31.618Z,21.40
2022-08-25T05:22:00.125Z,21.40
2022-08-25T05:24:33.629Z,21.40
2022-08-25T05:27:01.893Z,21.40
2022-08-25T05:29:29.598Z,21.40
2022-08-25T05:31:58.691Z,21.40
2022-08-25T05:34:27.345Z,21.50
2022-08-25T05:36:55.026Z,21.40
2022-08-25T05:39:22.991Z,21.30
2022-08-25T05:41:52.242Z,21.20
2022-08-25T05:44:21.322Z,21.20
2022-08-25T05:46:55.004Z,21.10
2022-08-25T05:49:26.340Z,21.10
2022-08-25T05:51:53.897Z,21.10
2022-08-25T05:54:23.169Z,21.00
2022-08-25T05:56:55.433Z,21.00
2022-08-25T05:59:23.630Z,21.10
2022-08-25T06:02:10.034Z,21.10
2022-08-25T06:04:41.095Z,21.10
2022-08-25T06:07:10.155Z,21.20
2022-08-25T06:09:43.794Z,21.20
2022-08-25T06:12:13.154Z,21.30
2022-08-25T06:14:40.857Z,21.30
2022-08-25T06:17:11.126Z,21.20
2022-08-25T06:19:39.755Z,21.40
2022-08-25T06:22:14.363Z,21.40
2022-08-25T06:24:48.987Z,21.40
2022-08-25T06:27:25.211Z,21.40
2022-08-25T06:29:56.001Z,21.40
2022-08-25T06:32:24.721Z,21.50
2022-08-25T06:35:00.027Z,21.50
2022-08-25T06:37:29.520Z,21.50
2022-08-25T06:39:58.970Z,21.50
2022-08-25T06:42:52.223Z,21.60
2022-08-25T06:45:19.235Z,21.70
2022-08-25T06:47:47.866Z,21.70
2022-08-25T06:50:15.929Z,21.70
2022-08-25T06:52:54.222Z,21.80
2022-08-25T06:55:25.259Z,21.90
2022-08-25T06:57:59.411Z,21.90
2022-08-25T07:00:32.326Z,22.00
2022-08-25T07:03:01.915Z,22.00
2022-08-25T07:05:42.659Z,22.20
2022-08-25T07:11:16.461Z,22.30
2022-08-25T07:13:51.582Z,22.30
2022-08-25T07:16:27.988Z,22.40
2022-08-25T07:19:01.593Z,22.40
2022-08-25T07:21:33.733Z,22.40
2022-08-25T07:24:07.889Z,22.50
2022-08-25T07:26:39.630Z,22.60
2022-08-25T07:29:42.331Z,22.60
2022-08-25T07:32:09.793Z,22.70
2022-08-25T07:35:00.259Z,22.80
2022-08-25T07:40:42.950Z,23.00
2022-08-25T07:43:12.221Z,23.20
2022-08-25T07:45:49.285Z,23.20
2022-08-25T07:48:22.191Z,23.30
2022-08-25T07:50:53.256Z,23.30
2022-08-25T07:53:22.135Z,23.40
2022-08-25T07:55:55.384Z,23.50
2022-08-25T07:58:26.367Z,23.60
2022-08-25T08:00:59.067Z,23.60
2022-08-25T08:03:45.224Z,23.70
2022-08-25T08:06:29.012Z,23.80
2022-08-25T08:08:59.872Z,23.90
2022-08-25T08:11:32.308Z,24.00
2022-08-25T08:16:45.519Z,24.10
2022-08-25T08:19:14.259Z,24.20
2022-08-25T08:21:54.572Z,24.30
2022-08-25T08:24:44.199Z,24.40
2022-08-25T08:27:16.407Z,24.40
2022-08-25T08:29:52.945Z,24.50
2022-08-25T08:32:23.162Z,24.60
2022-08-25T08:34:59.917Z,24.70
2022-08-25T08:37:28.397Z,24.70
2022-08-25T08:39:56.371Z,24.70
2022-08-25T08:42:37.315Z,24.90
2022-08-25T08:45:25.432Z,25.00
2022-08-25T08:48:14.515Z,25.00
2022-08-25T08:51:10.642Z,25.20
2022-08-25T08:54:20.778Z,25.30
2022-08-25T08:56:55.909Z,25.40
2022-08-25T08:59:39.889Z,25.50
2022-08-25T09:02:39.230Z,25.50
2022-08-25T09:05:22.091Z,25.60
2022-08-25T09:08:05.927Z,25.70
2022-08-25T09:10:54.229Z,25.80
2022-08-25T09:13:39.883Z,25.90
2022-08-25T09:16:42.707Z,26.10
2022-08-25T09:19:23.395Z,26.10
2022-08-25T09:22:36.017Z,26.30
2022-08-25T09:25:10.927Z,26.40
2022-08-25T09:28:13.596Z,26.50
2022-08-25T09:31:02.357Z,26.60
2022-08-25T09:33:34.231Z,26.80
2022-08-25T09:36:16.679Z,26.80
2022-08-25T09:38:48.483Z,26.90
2022-08-25T09:41:19.624Z,27.00
2022-08-25T09:43:56.530Z,27.10
2022-08-25T09:46:30.168Z,27.20
2022-08-25T09:49:16.130Z,27.30
2022-08-25T09:51:46.634Z,27.40
2022-08-25T09:54:25.578Z,27.40
2022-08-25T09:57:08.730Z,27.50
2022-08-25T09:59:39.359Z,27.60
2022-08-25T10:02:27.209Z,27.70
2022-08-25T10:04:57.174Z,27.80
2022-08-25T10:07:36.980Z,27.90
2022-08-25T10:10:32.714Z,28.00
2022-08-25T10:13:02.746Z,28.00
2022-08-25T10:15:38.706Z,28.20
2022-08-25T10:18:35.517Z,28.30
2022-08-25T10:21:16.217Z,28.30
2022-08-25T10:23:56.288Z,28.40
2022-08-25T10:27:01.498Z,28.70
2022-08-25T10:30:03.055Z,28.80
2022-08-25T10:33:08.586Z,29.10
2022-08-25T10:35:55.194Z,29.20
2022-08-25T10:38:45.224Z,29.30
2022-08-25T10:41:31.239Z,29.40
2022-08-25T10:44:02.301Z,29.40
2022-08-25T10:46:58.941Z,29.60
2022-08-25T10:49:44.104Z,29.70
2022-08-25T10:52:38.793Z,29.90
2022-08-25T10:55:47.229Z,29.80
2022-08-25T10:58:33.949Z,30.00
2022-08-25T11:01:03.688Z,30.00
2022-08-25T11:03:55.591Z,30.10
2022-08-25T11:06:50.261Z,30.30
2022-08-25T11:09:26.811Z,30.40
2022-08-25T11:12:14.931Z,30.40
2022-08-25T11:15:29.557Z,30.50
2022-08-25T11:18:14.001Z,30.60
2022-08-25T11:21:25.845Z,30.70
2022-08-25T11:24:06.791Z,30.80
2022-08-25T11:26:38.493Z,30.80
2022-08-25T11:29:18.150Z,30.80
2022-08-25T11:31:59.570Z,30.80
2022-08-25T11:34:34.671Z,30.80
2022-08-25T11:37:21.059Z,31.00
2022-08-25T11:40:15.142Z,31.20
2022-08-25T11:42:57.500Z,31.50
2022-08-25T11:45:42.809Z,31.70
2022-08-25T11:49:15.134Z,31.80
2022-08-25T11:51:44.436Z,31.70
2022-08-25T11:54:47.341Z,31.60
2022-08-25T11:57:34.907Z,31.80
2022-08-25T12:00:10.110Z,31.90
2022-08-25T12:02:53.274Z,32.00
2022-08-25T12:05:24.741Z,32.10
2022-08-25T12:08:24.707Z,32.20
2022-08-25T12:11:15.554Z,32.30
2022-08-25T12:13:51.782Z,32.10
2022-08-25T12:16:38.658Z,32.00
2022-08-25T12:19:28.744Z,32.00
2022-08-25T12:22:40.023Z,32.00
2022-08-25T12:25:26.063Z,31.90
2022-08-25T12:28:26.572Z,32.00
2022-08-25T12:31:47.991Z,32.20
2022-08-25T12:37:37.541Z,32.80
2022-08-25T12:40:10.022Z,32.80
2022-08-25T12:42:41.816Z,32.70
2022-08-25T12:45:25.782Z,32.90
2022-08-25T12:47:54.794Z,32.90
2022-08-25T12:50:45.603Z,32.80
2022-08-25T12:53:55.576Z,32.80
2022-08-25T12:56:37.483Z,32.80
2022-08-25T12:59:16.334Z,33.00
2022-08-25T13:02:18.931Z,33.10
2022-08-25T13:05:24.000Z,33.30
2022-08-25T13:08:00.915Z,33.20
2022-08-25T13:10:47.862Z,33.40
2022-08-25T13:13:34.827Z,33.40
2022-08-25T13:16:09.096Z,33.50
2022-08-25T13:18:40.915Z,33.50
2022-08-25T13:21:22.925Z,33.60
2022-08-25T13:24:01.613Z,33.90
2022-08-25T13:26:39.000Z,34.20
2022-08-25T13:29:23.559Z,34.10
2022-08-25T13:32:09.665Z,34.30
2022-08-25T13:34:45.311Z,34.50
2022-08-25T13:37:32.798Z,34.70
2022-08-25T13:40:26.044Z,34.70
2022-08-25T13:43:07.843Z,34.80
2022-08-25T13:45:42.814Z,34.70
2022-08-25T13:48:22.509Z,34.80
2022-08-25T13:50:56.103Z,34.90
2022-08-25T13:53:39.269Z,35.20
2022-08-25T13:56:09.157Z,35.20
2022-08-25T13:58:44.211Z,35.20
2022-08-25T14:01:48.704Z,35.20
2022-08-25T14:04:51.503Z,35.30
2022-08-25T14:07:34.024Z,35.50
2022-08-25T14:10:14.027Z,35.30
2022-08-25T14:12:51.134Z,35.30
2022-08-25T14:15:23.303Z,35.20
2022-08-25T14:18:13.832Z,35.20
2022-08-25T14:20:50.449Z,35.40
2022-08-25T14:23:27.307Z,35.40
2022-08-25T14:26:01.458Z,35.40
2022-08-25T14:28:33.913Z,35.50
2022-08-25T14:31:18.157Z,35.50
2022-08-25T14:34:04.462Z,35.50
2022-08-25T14:36:35.792Z,35.60
2022-08-25T14:39:08.744Z,35.60
2022-08-25T14:41:51.106Z,35.60
2022-08-25T14:44:20.788Z,35.50
2022-08-25T14:47:00.542Z,35.60
2022-08-25T14:49:36.594Z,35.70
2022-08-25T14:52:19.219Z,35.70
2022-08-25T14:54:50.047Z,35.50
2022-08-25T14:57:19.547Z,35.60
2022-08-25T14:59:54.124Z,35.60
2022-08-25T15:02:29.459Z,35.70
2022-08-25T15:05:07.222Z,35.70
2022-08-25T15:07:59.196Z,35.70
2022-08-25T15:10:28.563Z,35.80
2022-08-25T15:12:59.135Z,35.90
2022-08-25T15:15:28.931Z,36.10
2022-08-25T15:18:03.052Z,36.30
2022-08-25T15:20:30.548Z,36.40
2022-08-25T15:22:58.174Z,36.50
2022-08-25T15:25:31.527Z,36.40
2022-08-25T15:27:59.068Z,36.30
2022-08-25T15:30:31.319Z,36.20
2022-08-25T15:33:00.988Z,36.20
2022-08-25T15:35:40.912Z,36.20
2022-08-25T15:38:14.376Z,36.10
2022-08-25T15:40:43.181Z,35.90
2022-08-25T15:43:12.889Z,36.00
2022-08-25T15:45:46.351Z,36.00
2022-08-25T15:48:18.254Z,36.00
2022-08-25T15:50:48.865Z,36.00
2022-08-25T15:53:20.758Z,35.70
2022-08-25T15:55:52.402Z,35.70
2022-08-25T15:58:23.068Z,35.70
2022-08-25T16:00:56.094Z,35.60
2022-08-25T16:03:23.543Z,35.70
2022-08-25T16:05:54.036Z,35.90
2022-08-25T16:08:33.853Z,36.00
2022-08-25T16:11:33.270Z,36.10
2022-08-25T16:14:06.593Z,36.00
2022-08-25T16:16:40.343Z,35.70
2022-08-25T16:19:11.268Z,35.70
2022-08-25T16:21:42.207Z,35.60
2022-08-25T16:24:17.399Z,35.60
2022-08-25T16:26:52.421Z,35.50
2022-08-25T16:29:35.805Z,35.30
2022-08-25T16:32:06.298Z,35.20
2022-08-25T16:34:37.624Z,35.10
2022-08-25T16:37:10.437Z,35.20
2022-08-25T16:39:42.016Z,35.20
2022-08-25T16:42:21.537Z,35.10
2022-08-25T16:44:53.806Z,35.00
2022-08-25T16:47:25.290Z,34.60
2022-08-25T16:49:54.821Z,34.40
2022-08-25T16:52:44.424Z,33.80
2022-08-25T16:55:27.094Z,33.60
2022-08-25T16:57:56.846Z,33.30
2022-08-25T17:00:32.846Z,33.10
2022-08-25T17:03:05.191Z,32.70
2022-08-25T17:05:44.726Z,32.50
2022-08-25T17:08:30.870Z,32.30
2022-08-25T17:11:18.137Z,32.10
2022-08-25T17:13:50.058Z,32.10
2022-08-25T17:16:20.805Z,31.90
2022-08-25T17:18:48.483Z,31.70
2022-08-25T17:21:23.955Z,31.60
2022-08-25T17:23:53.637Z,31.40
2022-08-25T17:26:27.860Z,31.20
2022-08-25T17:28:59.328Z,31.10
2022-08-25T17:31:32.636Z,31.00
2022-08-25T17:34:04.292Z,31.00
2022-08-25T17:36:35.661Z,30.80
2022-08-25T17:39:11.032Z,30.70
2022-08-25T17:41:38.056Z,30.70
2022-08-25T17:44:08.890Z,30.60
2022-08-25T17:46:41.777Z,30.50
2022-08-25T17:49:15.596Z,30.50
2022-08-25T17:51:46.951Z,30.40
2022-08-25T17:54:15.652Z,30.30
2022-08-25T17:56:43.380Z,30.20
2022-08-25T17:59:12.107Z,30.00
2022-08-25T18:01:42.118Z,29.90
2022-08-25T18:04:17.773Z,29.80
2022-08-25T18:06:53.710Z,29.70
2022-08-25T18:09:22.390Z,29.60
2022-08-25T18:11:55.856Z,29.50
2022-08-25T18:14:29.174Z,29.40
2022-08-25T18:16:57.073Z,29.20
2022-08-25T18:19:25.022Z,29.10
2022-08-25T18:21:56.390Z,29.00
2022-08-25T18:24:33.106Z,29.00
2022-08-25T18:27:08.655Z,28.90
2022-08-25T18:29:47.573Z,28.80
2022-08-25T18:32:19.727Z,28.70
2022-08-25T18:34:55.579Z,28.60
2022-08-25T18:37:50.197Z,28.60
2022-08-25T18:40:28.115Z,28.50
2022-08-25T18:43:17.238Z,28.50
2022-08-25T18:46:08.217Z,28.50
2022-08-25T18:48:38.988Z,28.50
2022-08-25T18:51:14.120Z,28.40
2022-08-25T18:53:50.042Z,28.30
2022-08-25T18:56:19.621Z,28.30
2022-08-25T18:58:51.952Z,28.20
2022-08-25T19:01:27.259Z,28.20
2022-08-25T19:04:01.513Z,28.10
2022-08-25T19:06:39.516Z,28.10
2022-08-25T19:09:19.309Z,28.00
2022-08-25T19:11:56.338Z,28.00
2022-08-25T19:14:45.397Z,27.90
2022-08-25T19:17:27.977Z,27.90
2022-08-25T19:20:13.199Z,27.80
2022-08-25T19:22:42.097Z,27.80
2022-08-25T19:25:12.103Z,27.70
2022-08-25T19:27:55.155Z,27.60
2022-08-25T19:30:27.421Z,27.60
2022-08-25T19:33:01.145Z,27.60
2022-08-25T19:35:51.020Z,27.50
2022-08-25T19:38:34.182Z,27.40
2022-08-25T19:41:13.963Z,27.40
2022-08-25T19:43:55.371Z,27.40
2022-08-25T19:46:41.736Z,27.30
2022-08-25T19:49:21.002Z,27.30
2022-08-25T19:51:56.539Z,27.20
2022-08-25T19:54:46.615Z,27.10
2022-08-25T19:57:28.203Z,27.10
2022-08-25T20:00:16.673Z,27.00
2022-08-25T20:02:44.635Z,27.00
2022-08-25T20:05:23.837Z,27.00
2022-08-25T20:07:55.006Z,26.90
2022-08-25T20:10:26.330Z,26.80
2022-08-25T20:13:04.436Z,26.80
2022-08-25T20:15:34.496Z,26.80
2022-08-25T20:18:10.265Z,26.80
2022-08-25T20:20:42.549Z,26.70
2022-08-25T20:23:29.086Z,26.60
2022-08-25T20:26:01.173Z,26.60
2022-08-25T20:28:30.661Z,26.50
2022-08-25T20:31:02.172Z,26.50
2022-08-25T20:33:31.247Z,26.40
2022-08-25T20:35:59.829Z,26.40
2022-08-25T20:38:30.011Z,26.30
2022-08-25T20:41:00.375Z,26.30
2022-08-25T20:43:32.701Z,26.30
2022-08-25T20:46:08.601Z,26.20
2022-08-25T20:51:19.964Z,26.10
2022-08-25T20:53:52.278Z,26.10
2022-08-25T20:56:21.396Z,26.10
2022-08-25T20:58:49.238Z,26.00
2022-08-25T21:01:37.726Z,26.00
2022-08-25T21:04:14.422Z,26.00
2022-08-25T21:06:56.514Z,25.90
2022-08-25T21:09:30.542Z,25.90
2022-08-25T21:12:05.276Z,25.90
2022-08-25T21:14:40.678Z,25.80
2022-08-25T21:17:19.024Z,25.80
2022-08-25T21:22:16.805Z,25.70
2022-08-25T21:25:04.911Z,25.70
2022-08-25T21:27:34.445Z,25.60
2022-08-25T21:30:07.203Z,25.60
2022-08-25T21:32:35.806Z,25.50
2022-08-25T21:35:08.703Z,25.50
2022-08-25T21:37:40.022Z,25.40
2022-08-25T21:40:20.354Z,25.30
2022-08-25T21:42:51.546Z,25.30
2022-08-25T21:45:35.878Z,25.30
2022-08-25T21:48:06.767Z,25.20
2022-08-25T21:50:45.939Z,25.10
2022-08-25T21:53:24.565Z,25.10
2022-08-25T21:55:56.295Z,25.10
2022-08-25T21:58:36.295Z,25.00
2022-08-25T22:01:12.781Z,25.00
2022-08-25T22:03:43.324Z,25.00
2022-08-25T22:06:31.769Z,24.90
2022-08-25T22:08:59.381Z,24.90
2022-08-25T22:11:35.992Z,24.90
2022-08-25T22:14:07.121Z,24.90
2022-08-25T22:16:37.180Z,24.80
2022-08-25T22:19:06.725Z,24.80
2022-08-25T22:21:35.823Z,24.80
2022-08-25T22:24:03.807Z,24.80
2022-08-25T22:26:35.800Z,24.80
2022-08-25T22:29:05.925Z,24.70
2022-08-25T22:31:36.053Z,24.70
2022-08-25T22:34:09.101Z,24.70
2022-08-25T22:39:40.220Z,24.50
2022-08-25T22:42:08.754Z,24.40
2022-08-25T22:47:28.039Z,24.30
2022-08-25T22:50:02.424Z,24.30
2022-08-25T22:52:33.301Z,24.30
2022-08-25T22:55:11.318Z,24.20
2022-08-25T22:57:43.782Z,24.10
2022-08-25T23:00:17.952Z,24.10
2022-08-25T23:02:47.815Z,24.00
2022-08-25T23:05:16.401Z,23.90
2022-08-25T23:07:48.986Z,23.90
2022-08-25T23:10:16.887Z,23.80
2022-08-25T23:12:43.988Z,23.80
2022-08-25T23:15:14.075Z,23.80
2022-08-25T23:17:42.004Z,23.70
2022-08-25T23:20:31.110Z,23.70
2022-08-25T23:23:00.687Z,23.70
2022-08-25T23:25:49.202Z,23.70
2022-08-25T23:28:18.529Z,23.60
2022-08-25T23:30:59.177Z,23.60
2022-08-25T23:33:34.771Z,23.60
2022-08-25T23:36:09.344Z,23.50
2022-08-25T23:38:43.944Z,23.50
2022-08-25T23:41:22.047Z,23.50
2022-08-25T23:43:53.305Z,23.40
2022-08-25T23:46:22.970Z,23.50
2022-08-25T23:49:00.689Z,23.40
2022-08-25T23:51:37.127Z,23.40
2022-08-25T23:54:11.656Z,23.40
2022-08-25T23:56:44.526Z,23.40
2022-08-25T23:59:24.746Z,23.40
